createdAt,value
2023-05-03T00:02:22.582Z,6.63
2023-05-03T00:04:53.493Z,7.13
2023-05-03T00:07:20.507Z,6.22
2023-05-03T00:09:49.768Z,6.53
2023-05-03T00:12:16.232Z,6.80
2023-05-03T00:14:42.608Z,6.57
2023-05-03T00:17:09.041Z,6.75
2023-05-03T00:19:37.182Z,6.53
2023-05-03T00:22:03.894Z,7.03
2023-05-03T00:24:30.301Z,7.43
2023-05-03T00:26:56.805Z,7.15
2023-05-03T00:29:23.221Z,8.48
2023-05-03T00:31:49.659Z,7.30
2023-05-03T00:34:16.237Z,7.38
2023-05-03T00:36:42.614Z,6.88
2023-05-03T00:39:09.769Z,7.13
2023-05-03T00:41:36.161Z,7.13
2023-05-03T00:44:02.565Z,7.13
2023-05-03T00:46:29.384Z,7.32
2023-05-03T00:48:56.001Z,7.70
2023-05-03T00:51:22.626Z,8.60
2023-05-03T00:53:49.129Z,8.77
2023-05-03T00:56:20.870Z,7.95
2023-05-03T00:58:47.329Z,8.07
2023-05-03T01:01:15.190Z,7.80
2023-05-03T01:03:42.172Z,7.47
2023-05-03T01:06:13.973Z,7.80
2023-05-03T01:09:00.692Z,7.43
2023-05-03T01:11:34.305Z,7.38
2023-05-03T01:14:16.446Z,6.68
2023-05-03T01:16:54.469Z,7.03
2023-05-03T01:19:44.461Z,7.55
2023-05-03T01:22:34.072Z,6.85
2023-05-03T01:25:11.911Z,7.18
2023-05-03T01:27:39.114Z,7.13
2023-05-03T01:30:06.820Z,7.13
2023-05-03T01:33:00.936Z,6.78
2023-05-03T01:35:37.090Z,7.13
2023-05-03T01:38:04.264Z,8.25
2023-05-03T01:40:32.350Z,7.03
2023-05-03T01:42:59.514Z,6.65
2023-05-03T01:45:26.373Z,7.15
2023-05-03T01:47:52.803Z,7.60
2023-05-03T01:50:19.231Z,8.20
2023-05-03T01:52:45.611Z,7.65
2023-05-03T01:55:12.051Z,7.95
2023-05-03T01:57:38.432Z,8.18
2023-05-03T02:00:05.698Z,6.47
2023-05-03T02:02:32.456Z,7.13
2023-05-03T02:04:58.876Z,6.93
2023-05-03T02:07:25.878Z,6.75
2023-05-03T02:09:52.300Z,6.65
2023-05-03T02:12:18.727Z,6.55
2023-05-03T02:14:45.083Z,6.25
2023-05-03T02:17:11.519Z,6.88
2023-05-03T02:19:37.884Z,7.20
2023-05-03T02:22:04.253Z,5.97
2023-05-03T02:24:31.049Z,6.65
2023-05-03T02:26:57.758Z,6.95
2023-05-03T02:29:24.115Z,7.47
2023-05-03T02:31:50.488Z,7.60
2023-05-03T02:34:16.865Z,6.80
2023-05-03T02:36:43.288Z,6.97
2023-05-03T02:39:10.607Z,7.43
2023-05-03T02:41:37.212Z,7.70
2023-05-03T02:44:03.665Z,7.22
2023-05-03T02:46:30.724Z,6.43
2023-05-03T02:48:57.203Z,6.40
2023-05-03T02:51:23.872Z,7.05
2023-05-03T02:53:50.246Z,6.80
2023-05-03T02:56:16.664Z,6.68
2023-05-03T02:58:43.039Z,6.43
2023-05-03T03:01:11.044Z,6.35
2023-05-03T03:03:37.463Z,6.60
2023-05-03T03:06:03.906Z,6.30
2023-05-03T03:08:30.490Z,6.93
2023-05-03T03:10:56.876Z,6.38
2023-05-03T03:13:23.437Z,7.50
2023-05-03T03:15:49.842Z,6.85
2023-05-03T03:18:17.704Z,6.78
2023-05-03T03:20:45.352Z,7.88
2023-05-03T03:23:11.936Z,8.23
2023-05-03T03:25:38.319Z,7.70
2023-05-03T03:28:04.930Z,7.28
2023-05-03T03:30:31.387Z,7.20
2023-05-03T03:32:57.811Z,7.70
2023-05-03T03:35:24.318Z,6.90
2023-05-03T03:37:50.693Z,7.75
2023-05-03T03:40:17.137Z,10.52
2023-05-03T03:42:43.842Z,9.07
2023-05-03T03:45:10.763Z,8.68
2023-05-03T03:47:37.244Z,11.27
2023-05-03T03:50:03.932Z,12.27
2023-05-03T03:52:30.851Z,11.77
2023-05-03T03:54:57.238Z,9.82
2023-05-03T03:57:25.081Z,9.25
2023-05-03T03:59:51.514Z,9.13
2023-05-03T04:02:17.958Z,8.70
2023-05-03T04:04:44.474Z,8.65
2023-05-03T04:07:11.701Z,8.65
2023-05-03T04:09:38.093Z,9.02
2023-05-03T04:12:04.858Z,9.57
2023-05-03T04:14:31.324Z,9.27
2023-05-03T04:16:57.734Z,9.13
2023-05-03T04:19:26.319Z,9.52
2023-05-03T04:21:52.778Z,9.02
2023-05-03T04:24:19.255Z,10.27
2023-05-03T04:26:46.001Z,9.77
2023-05-03T04:29:12.585Z,9.00
2023-05-03T04:31:39.703Z,10.73
2023-05-03T04:34:06.122Z,9.23
2023-05-03T04:36:32.856Z,9.27
2023-05-03T04:38:59.283Z,9.70
2023-05-03T04:41:25.902Z,9.43
2023-05-03T04:43:53.142Z,10.65
2023-05-03T04:46:19.626Z,9.00
2023-05-03T04:48:46.356Z,8.93
2023-05-03T04:51:13.091Z,9.98
2023-05-03T04:53:40.258Z,9.55
2023-05-03T04:56:07.432Z,9.63
2023-05-03T04:58:33.868Z,9.18
2023-05-03T05:01:00.411Z,9.23
2023-05-03T05:03:26.986Z,10.38
2023-05-03T05:05:53.469Z,10.07
2023-05-03T05:08:20.897Z,10.48
2023-05-03T05:10:47.397Z,11.45
2023-05-03T05:13:14.227Z,9.85
2023-05-03T05:15:40.743Z,10.20
2023-05-03T05:18:07.323Z,10.27
2023-05-03T05:20:33.837Z,9.50
2023-05-03T05:23:00.387Z,9.20
2023-05-03T05:25:27.297Z,8.77
2023-05-03T05:27:53.783Z,8.55
2023-05-03T05:30:20.326Z,9.43
2023-05-03T05:32:46.961Z,10.75
2023-05-03T05:35:13.416Z,12.65
2023-05-03T05:37:39.856Z,12.00
2023-05-03T05:40:07.731Z,11.45
2023-05-03T05:42:34.212Z,10.23
2023-05-03T05:45:00.703Z,11.40
2023-05-03T05:47:27.267Z,10.38
2023-05-03T05:49:53.844Z,9.77
2023-05-03T05:52:20.386Z,11.32
2023-05-03T05:54:46.755Z,10.80
2023-05-03T05:57:13.746Z,10.57
2023-05-03T05:59:40.795Z,9.85
2023-05-03T06:02:14.531Z,9.88
2023-05-03T06:04:41.050Z,9.57
2023-05-03T06:07:07.455Z,10.15
2023-05-03T06:09:34.031Z,10.25
2023-05-03T06:12:01.110Z,9.63
2023-05-03T06:14:27.551Z,10.38
2023-05-03T06:16:54.699Z,11.00
2023-05-03T06:19:21.601Z,10.80
2023-05-03T06:21:47.981Z,10.35
2023-05-03T06:24:20.773Z,8.70
2023-05-03T06:26:48.293Z,9.55
2023-05-03T06:29:14.738Z,10.20
2023-05-03T06:31:43.800Z,9.63
2023-05-03T06:34:10.567Z,9.45
2023-05-03T06:36:37.784Z,9.45
2023-05-03T06:39:04.396Z,9.25
2023-05-03T06:41:32.790Z,8.93
2023-05-03T06:43:59.229Z,11.80
2023-05-03T06:46:27.602Z,8.65
2023-05-03T06:48:56.329Z,8.13
2023-05-03T06:51:30.450Z,8.02
2023-05-03T06:53:58.205Z,8.45
2023-05-03T06:56:24.623Z,7.68
2023-05-03T06:58:51.047Z,8.63
2023-05-03T07:01:19.044Z,9.50
2023-05-03T07:03:45.739Z,5.57
2023-05-03T07:06:12.770Z,5.90
2023-05-03T07:08:39.171Z,5.40
2023-05-03T07:11:05.678Z,5.13
2023-05-03T07:13:32.373Z,5.93
2023-05-03T07:16:00.312Z,5.63
2023-05-03T07:18:28.037Z,6.45
2023-05-03T07:20:54.401Z,5.25
2023-05-03T07:23:20.883Z,4.93
2023-05-03T07:25:47.280Z,5.40
2023-05-03T07:28:13.687Z,5.57
2023-05-03T07:30:40.837Z,5.20
2023-05-03T07:33:08.291Z,5.57
2023-05-03T07:35:34.795Z,4.60
2023-05-03T07:38:01.300Z,3.92
2023-05-03T07:40:28.725Z,5.50
2023-05-03T07:42:55.086Z,4.00
2023-05-03T07:45:21.493Z,3.88
2023-05-03T07:47:47.930Z,3.50
2023-05-03T07:50:14.462Z,4.03
2023-05-03T07:52:42.232Z,4.28
2023-05-03T07:55:08.883Z,3.80
2023-05-03T07:57:36.092Z,3.83
2023-05-03T08:00:04.448Z,4.45
2023-05-03T08:02:31.289Z,4.22
2023-05-03T08:04:58.005Z,3.72
2023-05-03T08:07:24.559Z,4.20
2023-05-03T08:09:53.563Z,4.20
2023-05-03T08:12:19.942Z,4.80
2023-05-03T08:14:46.551Z,5.00
2023-05-03T08:17:12.949Z,5.68
2023-05-03T08:19:39.394Z,3.92
2023-05-03T08:22:05.815Z,4.40
2023-05-03T08:24:32.338Z,4.53
2023-05-03T08:26:58.982Z,4.80
2023-05-03T08:29:27.473Z,4.57
2023-05-03T08:31:54.171Z,4.18
2023-05-03T08:34:20.644Z,5.30
2023-05-03T08:36:47.034Z,4.43
2023-05-03T08:39:15.158Z,4.22
2023-05-03T08:41:41.631Z,4.78
2023-05-03T08:44:08.461Z,4.60
2023-05-03T08:46:37.190Z,4.88
2023-05-03T08:49:04.406Z,5.28
2023-05-03T08:51:31.678Z,5.78
2023-05-03T08:53:59.217Z,5.47
2023-05-03T08:56:52.123Z,5.85
2023-05-03T08:59:18.836Z,4.88
2023-05-03T09:01:45.252Z,4.85
2023-05-03T09:04:12.008Z,4.47
2023-05-03T09:06:39.075Z,5.07
2023-05-03T09:09:07.504Z,4.38
2023-05-03T09:11:35.993Z,3.75
2023-05-03T09:14:12.381Z,4.25
2023-05-03T09:16:40.838Z,3.70
2023-05-03T09:19:09.563Z,4.28
2023-05-03T09:21:36.487Z,4.40
2023-05-03T09:24:10.873Z,4.50
2023-05-03T09:26:38.260Z,4.03
2023-05-03T09:29:05.043Z,3.75
2023-05-03T09:31:33.200Z,3.92
2023-05-03T09:34:00.885Z,3.75
2023-05-03T09:36:27.817Z,3.75
2023-05-03T09:38:54.773Z,4.10
2023-05-03T09:41:28.918Z,3.88
2023-05-03T09:43:56.696Z,4.53
2023-05-03T09:46:29.124Z,3.95
2023-05-03T09:48:57.148Z,4.22
2023-05-03T09:51:24.213Z,3.40
2023-05-03T09:53:51.118Z,3.50
2023-05-03T09:56:20.550Z,3.67
2023-05-03T09:58:47.158Z,3.90
2023-05-03T10:01:14.865Z,4.00
2023-05-03T10:03:52.808Z,3.53
2023-05-03T10:06:20.704Z,3.88
2023-05-03T10:08:58.912Z,3.72
2023-05-03T10:11:27.317Z,4.10
2023-05-03T10:13:55.607Z,3.90
2023-05-03T10:16:26.789Z,3.63
2023-05-03T10:19:15.584Z,3.97
2023-05-03T10:21:49.007Z,4.22
2023-05-03T10:24:16.790Z,3.90
2023-05-03T10:26:47.575Z,4.15
2023-05-03T10:29:36.061Z,3.47
2023-05-03T10:32:03.821Z,3.75
2023-05-03T10:34:35.281Z,3.63
2023-05-03T10:37:03.372Z,3.92
2023-05-03T10:39:30.868Z,3.35
2023-05-03T10:41:59.714Z,4.40
2023-05-03T10:44:27.877Z,3.50
2023-05-03T10:46:54.695Z,3.95
2023-05-03T10:49:22.918Z,4.22
2023-05-03T10:51:49.829Z,3.67
2023-05-03T10:54:17.554Z,3.47
2023-05-03T10:56:51.293Z,3.20
2023-05-03T10:59:17.777Z,3.63
2023-05-03T11:01:50.994Z,3.95
2023-05-03T11:04:34.163Z,3.80
2023-05-03T11:07:01.365Z,3.92
2023-05-03T11:09:32.626Z,3.65
2023-05-03T11:11:59.101Z,4.13
2023-05-03T11:14:25.737Z,3.95
2023-05-03T11:16:52.378Z,3.45
2023-05-03T11:19:18.942Z,4.20
2023-05-03T11:21:46.401Z,3.40
2023-05-03T11:24:13.450Z,3.55
2023-05-03T11:26:39.903Z,3.92
2023-05-03T11:29:06.390Z,3.50
2023-05-03T11:31:33.027Z,4.35
2023-05-03T11:33:59.732Z,3.50
2023-05-03T11:36:27.890Z,3.33
2023-05-03T11:38:54.410Z,4.20
2023-05-03T11:41:21.605Z,3.95
2023-05-03T11:43:55.051Z,4.53
2023-05-03T11:46:26.792Z,4.20
2023-05-03T11:48:53.422Z,3.30
2023-05-03T11:51:23.603Z,3.78
2023-05-03T11:53:50.655Z,3.63
2023-05-03T11:56:21.051Z,4.40
2023-05-03T11:58:51.290Z,3.38
2023-05-03T12:01:19.112Z,3.83
2023-05-03T12:03:49.265Z,3.95
2023-05-03T12:06:17.879Z,4.30
2023-05-03T12:08:45.246Z,3.80
2023-05-03T12:11:14.090Z,3.85
2023-05-03T12:13:43.964Z,3.80
2023-05-03T12:16:14.322Z,3.92
2023-05-03T12:18:57.465Z,4.23
2023-05-03T12:21:30.821Z,3.85
2023-05-03T12:24:01.221Z,4.43
2023-05-03T12:26:27.978Z,4.25
2023-05-03T12:28:56.533Z,3.78
2023-05-03T12:31:23.529Z,4.00
2023-05-03T12:34:09.131Z,4.93
2023-05-03T12:36:38.258Z,4.78
2023-05-03T12:39:09.284Z,4.43
2023-05-03T12:44:09.910Z,4.40
2023-05-03T12:46:38.055Z,4.43
2023-05-03T12:49:07.590Z,4.10
2023-05-03T12:51:35.054Z,4.80
2023-05-03T12:54:02.368Z,5.47
2023-05-03T12:56:32.862Z,4.95
2023-05-03T12:59:23.268Z,4.88
2023-05-03T13:03:08.934Z,4.82
2023-05-03T13:04:57.132Z,4.60
2023-05-03T13:07:27.523Z,4.72
2023-05-03T13:12:25.521Z,5.00
2023-05-03T13:14:53.223Z,4.47
2023-05-03T13:17:22.324Z,24.70
2023-05-03T13:19:50.000Z,5.40
2023-05-03T13:22:17.224Z,4.75
2023-05-03T13:24:44.805Z,5.18
2023-05-03T13:27:11.595Z,4.50
2023-05-03T13:29:38.638Z,4.60
2023-05-03T13:32:05.399Z,4.90
2023-05-03T13:34:32.723Z,4.72
2023-05-03T13:36:59.137Z,4.88
2023-05-03T13:39:25.968Z,4.50
2023-05-03T13:41:52.487Z,4.70
2023-05-03T13:44:19.314Z,5.00
2023-05-03T13:46:46.210Z,4.85
2023-05-03T13:49:13.434Z,5.90
2023-05-03T13:51:39.919Z,5.53
2023-05-03T13:54:07.348Z,5.57
2023-05-03T13:56:34.624Z,5.72
2023-05-03T13:59:01.134Z,5.13
2023-05-03T14:01:28.517Z,5.30
2023-05-03T14:03:55.784Z,4.65
2023-05-03T14:06:23.495Z,5.03
2023-05-03T14:08:50.343Z,5.03
2023-05-03T14:11:18.236Z,5.40
2023-05-03T14:13:56.213Z,5.07
2023-05-03T14:16:39.080Z,4.78
2023-05-03T14:19:07.587Z,4.90
2023-05-03T14:21:34.472Z,5.10
2023-05-03T14:24:01.324Z,6.00
2023-05-03T14:26:29.240Z,4.70
2023-05-03T14:28:56.004Z,5.18
2023-05-03T14:31:22.505Z,4.72
2023-05-03T14:33:48.942Z,5.32
2023-05-03T14:36:15.348Z,5.18
2023-05-03T14:38:41.770Z,5.32
2023-05-03T14:41:09.176Z,5.38
2023-05-03T14:43:35.671Z,5.47
2023-05-03T14:46:02.096Z,5.82
2023-05-03T14:48:28.512Z,5.10
2023-05-03T14:50:54.926Z,5.20
2023-05-03T14:53:22.450Z,5.90
2023-05-03T14:55:48.924Z,5.47
2023-05-03T14:58:15.871Z,4.82
2023-05-03T15:00:42.647Z,5.40
2023-05-03T15:03:13.668Z,5.22
2023-05-03T15:05:48.212Z,5.20
2023-05-03T15:08:16.653Z,5.47
2023-05-03T15:10:44.603Z,5.43
2023-05-03T15:13:11.907Z,5.22
2023-05-03T15:15:39.107Z,5.35
2023-05-03T15:18:06.439Z,4.03
2023-05-03T15:20:32.894Z,4.45
2023-05-03T15:22:59.327Z,4.13
2023-05-03T15:25:25.999Z,3.67
2023-05-03T15:27:52.524Z,5.47
2023-05-03T15:30:19.158Z,4.63
2023-05-03T15:32:45.796Z,4.30
2023-05-03T15:35:12.858Z,4.22
2023-05-03T15:37:39.277Z,4.82
2023-05-03T15:40:09.465Z,4.32
2023-05-03T15:42:36.748Z,4.53
2023-05-03T15:45:04.322Z,4.45
2023-05-03T15:47:31.088Z,5.15
2023-05-03T15:49:57.934Z,4.80
2023-05-03T15:52:24.377Z,4.60
2023-05-03T15:54:51.691Z,5.10
2023-05-03T15:57:18.494Z,5.13
2023-05-03T15:59:44.930Z,5.60
2023-05-03T16:02:11.298Z,5.80
2023-05-03T16:04:37.967Z,5.35
2023-05-03T16:07:04.701Z,4.85
2023-05-03T16:09:31.170Z,5.43
2023-05-03T16:11:59.000Z,4.85
2023-05-03T16:14:26.349Z,4.78
2023-05-03T16:16:52.903Z,4.85
2023-05-03T16:19:19.358Z,4.75
2023-05-03T16:21:45.726Z,4.57
2023-05-03T16:24:12.773Z,4.57
2023-05-03T16:26:39.216Z,4.85
2023-05-03T16:29:05.746Z,4.65
2023-05-03T16:31:32.299Z,4.82
2023-05-03T16:33:58.741Z,3.75
2023-05-03T16:36:25.210Z,4.07
2023-05-03T16:38:51.672Z,3.70
2023-05-03T16:41:18.182Z,3.85
2023-05-03T16:43:44.552Z,4.13
2023-05-03T16:46:11.233Z,3.90
2023-05-03T16:48:37.773Z,3.75
2023-05-03T16:51:04.410Z,3.80
2023-05-03T16:53:31.350Z,3.65
2023-05-03T16:55:57.791Z,3.97
2023-05-03T16:58:24.206Z,4.30
2023-05-03T17:00:51.098Z,4.15
2023-05-03T17:03:17.711Z,4.07
2023-05-03T17:05:44.297Z,4.50
2023-05-03T17:08:10.939Z,4.18
2023-05-03T17:10:39.100Z,5.05
2023-05-03T17:13:06.256Z,4.78
2023-05-03T17:15:32.968Z,4.53
2023-05-03T17:18:01.237Z,4.18
2023-05-03T17:20:30.182Z,4.50
2023-05-03T17:22:56.679Z,3.80
2023-05-03T17:25:23.083Z,4.00
2023-05-03T17:27:51.633Z,4.35
2023-05-03T17:30:21.034Z,4.07
2023-05-03T17:32:48.387Z,4.00
2023-05-03T17:35:14.925Z,3.90
2023-05-03T17:37:41.385Z,4.25
2023-05-03T17:40:08.334Z,3.55
2023-05-03T17:42:34.976Z,4.25
2023-05-03T17:45:02.032Z,4.40
2023-05-03T17:47:29.287Z,4.13
2023-05-03T17:49:56.079Z,3.88
2023-05-03T17:52:22.715Z,3.92
2023-05-03T17:54:52.003Z,3.72
2023-05-03T17:57:20.458Z,4.15
2023-05-03T17:59:48.398Z,4.38
2023-05-03T18:02:14.821Z,5.53
2023-05-03T18:04:41.254Z,6.57
2023-05-03T18:07:07.739Z,6.82
2023-05-03T18:09:34.172Z,5.80
2023-05-03T18:12:01.841Z,5.30
2023-05-03T18:14:28.460Z,6.15
2023-05-03T18:16:55.175Z,5.65
2023-05-03T18:19:21.854Z,5.78
2023-05-03T18:21:48.235Z,6.78
2023-05-03T18:24:15.800Z,6.90
2023-05-03T18:26:42.319Z,7.05
2023-05-03T18:29:08.872Z,7.55
2023-05-03T18:31:35.258Z,6.95
2023-05-03T18:34:01.721Z,6.95
2023-05-03T18:36:28.163Z,6.38
2023-05-03T18:38:54.560Z,6.60
2023-05-03T18:41:21.148Z,7.25
2023-05-03T18:43:47.866Z,7.22
2023-05-03T18:46:20.714Z,8.00
2023-05-03T18:48:47.543Z,6.25
2023-05-03T18:51:14.287Z,6.70
2023-05-03T18:53:40.698Z,7.45
2023-05-03T18:56:07.111Z,6.40
2023-05-03T18:58:33.765Z,7.90
2023-05-03T19:01:00.669Z,6.72
2023-05-03T19:03:30.374Z,6.80
2023-05-03T19:06:04.185Z,7.00
2023-05-03T19:08:31.395Z,8.15
2023-05-03T19:10:58.008Z,7.78
2023-05-03T19:13:25.506Z,6.90
2023-05-03T19:15:51.923Z,6.70
2023-05-03T19:18:18.300Z,6.85
2023-05-03T19:20:44.693Z,6.50
2023-05-03T19:23:11.180Z,6.15
2023-05-03T19:25:37.956Z,7.32
2023-05-03T19:28:06.575Z,6.78
2023-05-03T19:30:33.048Z,6.95
2023-05-03T19:32:59.647Z,7.38
2023-05-03T19:35:26.163Z,8.40
2023-05-03T19:37:52.550Z,6.40
2023-05-03T19:40:18.981Z,7.80
2023-05-03T19:42:45.418Z,7.35
2023-05-03T19:45:12.267Z,8.25
2023-05-03T19:47:38.725Z,6.88
2023-05-03T19:50:05.826Z,7.38
2023-05-03T19:52:32.463Z,7.30
2023-05-03T19:54:58.940Z,6.88
2023-05-03T19:57:25.715Z,7.70
2023-05-03T19:59:52.202Z,7.28
2023-05-03T20:02:18.690Z,7.03
2023-05-03T20:04:45.153Z,7.25
2023-05-03T20:07:11.570Z,7.53
2023-05-03T20:09:37.977Z,7.05
2023-05-03T20:12:04.736Z,7.47
2023-05-03T20:14:32.363Z,6.72
2023-05-03T20:16:59.025Z,7.47
2023-05-03T20:19:25.936Z,7.82
2023-05-03T20:21:52.618Z,7.60
2023-05-03T20:24:20.387Z,7.68
2023-05-03T20:26:46.761Z,7.28
2023-05-03T20:29:13.153Z,7.20
2023-05-03T20:31:39.703Z,7.03
2023-05-03T20:34:06.135Z,7.15
2023-05-03T20:36:32.785Z,7.13
2023-05-03T20:38:59.333Z,7.35
2023-05-03T20:41:26.085Z,7.55
2023-05-03T20:43:53.894Z,7.63
2023-05-03T20:46:20.510Z,7.70
2023-05-03T20:48:47.121Z,7.38
2023-05-03T20:51:14.636Z,7.35
2023-05-03T20:53:41.270Z,7.43
2023-05-03T20:56:07.901Z,7.60
2023-05-03T20:58:34.420Z,7.82
2023-05-03T21:01:03.988Z,8.00
2023-05-03T21:03:30.935Z,7.72
2023-05-03T21:05:57.646Z,8.13
2023-05-03T21:08:24.290Z,8.57
2023-05-03T21:10:50.845Z,7.72
2023-05-03T21:13:17.529Z,7.55
2023-05-03T21:15:44.021Z,7.55
2023-05-03T21:18:11.221Z,7.93
2023-05-03T21:20:38.001Z,7.75
2023-05-03T21:23:05.006Z,8.27
2023-05-03T21:25:31.812Z,8.30
2023-05-03T21:27:58.210Z,8.32
2023-05-03T21:30:24.599Z,8.52
2023-05-03T21:32:51.110Z,8.23
2023-05-03T21:35:18.452Z,8.02
2023-05-03T21:37:46.441Z,8.50
2023-05-03T21:40:14.960Z,8.57
2023-05-03T21:42:42.419Z,8.80
2023-05-03T21:45:09.985Z,8.43
2023-05-03T21:47:36.490Z,7.97
2023-05-03T21:50:05.751Z,7.90
2023-05-03T21:52:32.987Z,8.10
2023-05-03T21:54:59.435Z,8.43
2023-05-03T21:57:26.321Z,9.52
2023-05-03T21:59:54.008Z,8.30
2023-05-03T22:02:22.047Z,8.63
2023-05-03T22:04:48.828Z,9.00
2023-05-03T22:07:15.472Z,8.77
2023-05-03T22:09:45.826Z,8.70
2023-05-03T22:12:23.677Z,8.32
2023-05-03T22:14:50.908Z,9.05
2023-05-03T22:17:17.342Z,9.00
2023-05-03T22:19:43.754Z,8.30
2023-05-03T22:22:10.409Z,9.15
2023-05-03T22:24:36.854Z,8.43
2023-05-03T22:27:03.663Z,8.88
2023-05-03T22:29:31.395Z,9.32
2023-05-03T22:31:57.899Z,8.40
2023-05-03T22:34:24.381Z,8.07
2023-05-03T22:36:50.764Z,7.90
2023-05-03T22:39:17.316Z,7.97
2023-05-03T22:41:44.098Z,7.13
2023-05-03T22:44:10.490Z,8.10
2023-05-03T22:46:36.942Z,8.98
2023-05-03T22:49:03.815Z,8.50
2023-05-03T22:51:31.087Z,7.28
2023-05-03T22:53:57.465Z,8.27
2023-05-03T22:56:23.906Z,8.82
2023-05-03T22:58:50.366Z,8.50
2023-05-03T23:01:16.834Z,7.50
2023-05-03T23:03:43.471Z,7.90
2023-05-03T23:06:10.021Z,7.40
2023-05-03T23:08:36.495Z,7.38
2023-05-03T23:11:02.887Z,8.07
2023-05-03T23:13:29.320Z,7.70
2023-05-03T23:15:55.819Z,8.60
2023-05-03T23:18:22.624Z,8.75
2023-05-03T23:20:49.305Z,8.55
2023-05-03T23:23:16.102Z,8.27
2023-05-03T23:25:42.636Z,7.80
2023-05-03T23:28:09.032Z,8.10
2023-05-03T23:30:35.735Z,7.70
2023-05-03T23:33:02.754Z,7.30
2023-05-03T23:35:29.579Z,7.28
2023-05-03T23:37:56.174Z,7.18
2023-05-03T23:40:22.638Z,7.70
2023-05-03T23:42:49.698Z,7.43
2023-05-03T23:45:16.091Z,7.13
2023-05-03T23:47:42.514Z,7.85
2023-05-03T23:50:09.263Z,7.43
2023-05-03T23:52:35.851Z,7.85
2023-05-03T23:55:02.743Z,7.57
2023-05-03T23:57:29.096Z,8.20
2023-05-03T23:59:55.644Z,9.63
